Time;durP1;ratioP1;P1;durP2;ratioP2;P2;SDS_P1;SDS_P2;PMS_P1;PMS_P2;Temp;Humidity;BMP_temperature;BMP_pressure;BME280_temperature;BME280_humidity;BME280_pressure;Samples;Min_cycle;Max_cycle;Signal;HPM_P1;HPM_P2
2023/09/24 00:01:05;;;;;;;9.33;8.53;;;11.30;99.90;;;;;;4972913;28;20785;-78
2023/09/24 00:03:33;;;;;;;9.23;8.53;;;11.30;99.90;;;;;;4972680;28;20231;-77
2023/09/24 00:06:05;;;;;;;8.77;8.07;;;11.20;99.90;;;;;;4972147;28;20219;-78
2023/09/24 00:08:32;;;;;;;10.30;8.63;;;11.10;99.90;;;;;;4973083;28;20653;-77
2023/09/24 00:10:59;;;;;;;9.40;8.60;;;11.10;99.90;;;;;;4972893;28;20224;-76
2023/09/24 00:13:26;;;;;;;7.70;7.10;;;11.10;99.90;;;;;;4973200;28;20202;-78
2023/09/24 00:15:54;;;;;;;6.33;5.73;;;11.10;99.90;;;;;;4972534;28;20211;-78
2023/09/24 00:18:21;;;;;;;4.90;4.40;;;11.10;99.90;;;;;;4972265;28;20834;-79
2023/09/24 00:20:50;;;;;;;6.60;5.93;;;11.10;99.90;;;;;;4973738;28;20300;-78
2023/09/24 00:23:18;;;;;;;6.00;5.50;;;11.10;99.90;;;;;;4972246;28;20219;-78
2023/09/24 00:25:45;;;;;;;5.87;5.17;;;11.10;99.90;;;;;;4972315;28;20257;-77
2023/09/24 00:28:12;;;;;;;6.87;6.17;;;11.10;99.90;;;;;;4973471;28;20216;-77
2023/09/24 00:30:41;;;;;;;4.83;4.30;;;11.10;99.90;;;;;;4972474;28;20218;-78
2023/09/24 00:33:08;;;;;;;10.40;9.50;;;11.00;99.90;;;;;;4972464;28;20203;-77
2023/09/24 00:35:35;;;;;;;10.27;9.37;;;11.00;99.90;;;;;;4971910;28;20259;-77
2023/09/24 00:38:02;;;;;;;9.03;8.23;;;11.00;99.90;;;;;;4980088;28;20217;-78
2023/09/24 00:40:30;;;;;;;8.90;8.20;;;10.90;99.90;;;;;;4988026;28;20218;-78
2023/09/24 00:42:57;;;;;;;8.97;8.20;;;10.80;99.90;;;;;;4980676;28;20227;-77
2023/09/24 00:45:25;;;;;;;8.97;8.23;;;10.80;99.90;;;;;;4988671;28;20735;-78
2023/09/24 00:47:54;;;;;;;8.90;8.20;;;10.80;99.90;;;;;;4979894;28;20214;-78
2023/09/24 00:50:21;;;;;;;8.70;8.00;;;10.80;99.90;;;;;;4975450;28;20309;-77
2023/09/24 00:52:50;;;;;;;8.77;8.17;;;10.80;99.90;;;;;;4977132;28;20253;-78
2023/09/24 00:55:18;;;;;;;9.90;8.90;;;10.80;99.90;;;;;;4976637;28;20199;-78
2023/09/24 00:57:50;;;;;;;8.87;8.20;;;10.80;99.90;;;;;;4975577;28;20203;-78
2023/09/24 01:00:17;;;;;;;9.00;8.30;;;10.70;99.90;;;;;;4977494;28;20230;-78
2023/09/24 01:02:46;;;;;;;10.03;8.97;;;10.70;99.90;;;;;;4978083;28;20765;-77
2023/09/24 01:05:14;;;;;;;8.77;8.03;;;10.70;99.90;;;;;;4976272;28;20206;-78
2023/09/24 01:07:42;;;;;;;9.40;8.60;;;10.70;99.90;;;;;;4975531;28;20702;-77
2023/09/24 01:10:11;;;;;;;9.60;8.83;;;10.60;99.90;;;;;;4976014;28;20228;-77
2023/09/24 01:12:39;;;;;;;10.00;9.23;;;10.60;99.90;;;;;;4965091;28;20241;-78
2023/09/24 01:15:13;;;;;;;9.27;8.43;;;10.50;99.90;;;;;;4975147;28;20693;-78
2023/09/24 01:17:40;;;;;;;9.60;8.80;;;10.40;99.90;;;;;;4992753;28;20785;-78
2023/09/24 01:20:12;;;;;;;12.23;11.00;;;10.40;99.90;;;;;;4976878;28;20230;-77
2023/09/24 01:22:41;;;;;;;9.53;8.77;;;10.30;99.90;;;;;;4968596;28;20231;-77
2023/09/24 01:25:09;;;;;;;10.80;10.00;;;10.20;99.90;;;;;;4974932;28;20261;-77
2023/09/24 01:27:36;;;;;;;10.03;9.17;;;10.20;99.90;;;;;;4975037;28;20221;-78
2023/09/24 01:30:05;;;;;;;10.60;9.80;;;10.20;99.90;;;;;;4975331;28;20223;-78
2023/09/24 01:32:32;;;;;;;9.83;9.00;;;10.20;99.90;;;;;;4976624;28;20207;-77
2023/09/24 01:35:01;;;;;;;10.90;9.87;;;10.10;99.90;;;;;;4974830;28;20292;-76
2023/09/24 01:37:28;;;;;;;10.60;9.70;;;10.10;99.90;;;;;;4975080;28;20303;-78
2023/09/24 01:39:57;;;;;;;11.13;10.10;;;10.00;99.90;;;;;;4975121;28;20604;-78
2023/09/24 01:42:24;;;;;;;10.20;9.40;;;10.00;99.90;;;;;;4974925;28;20217;-77
2023/09/24 01:44:50;;;;;;;10.17;9.43;;;10.00;99.90;;;;;;4975081;28;20201;-77
2023/09/24 01:47:17;;;;;;;10.20;9.37;;;10.00;99.90;;;;;;4977779;28;20206;-78
2023/09/24 01:49:44;;;;;;;10.07;9.37;;;9.90;99.90;;;;;;4975070;28;20719;-78
2023/09/24 01:52:10;;;;;;;9.60;8.80;;;9.90;99.90;;;;;;4974598;28;20633;-77
2023/09/24 01:54:38;;;;;;;10.10;9.30;;;9.80;99.90;;;;;;4974428;28;20194;-78
2023/09/24 01:57:07;;;;;;;9.83;9.03;;;9.80;99.90;;;;;;4974383;28;20216;-78
2023/09/24 01:59:34;;;;;;;10.10;9.40;;;9.80;99.90;;;;;;4974281;28;20308;-78
2023/09/24 02:02:01;;;;;;;10.40;9.57;;;9.90;99.90;;;;;;4974734;28;20254;-77
2023/09/24 02:04:28;;;;;;;10.60;9.70;;;9.90;99.90;;;;;;4974690;28;20320;-78
2023/09/24 02:06:55;;;;;;;10.33;9.53;;;9.90;99.90;;;;;;4974491;28;20202;-78
2023/09/24 02:09:22;;;;;;;10.87;9.87;;;9.80;99.90;;;;;;4974460;28;20273;-77
2023/09/24 02:11:53;;;;;;;10.30;9.60;;;9.80;99.90;;;;;;4974420;28;20233;-77
2023/09/24 02:14:22;;;;;;;11.87;9.93;;;9.80;99.90;;;;;;4974297;28;20260;-77
2023/09/24 02:16:50;;;;;;;10.10;9.30;;;9.70;99.90;;;;;;4974300;28;20198;-77
2023/09/24 02:19:17;;;;;;;10.90;10.00;;;9.60;99.90;;;;;;4982050;28;20727;-77
2023/09/24 02:21:44;;;;;;;10.30;9.50;;;9.60;99.90;;;;;;4975847;28;20206;-77
2023/09/24 02:24:11;;;;;;;10.60;9.80;;;9.60;99.90;;;;;;4976004;28;20229;-78
2023/09/24 02:26:38;;;;;;;10.00;9.20;;;9.60;99.90;;;;;;4974290;28;20257;-77
2023/09/24 02:29:05;;;;;;;10.10;9.40;;;9.50;99.90;;;;;;4974089;28;20206;-78
2023/09/24 02:31:33;;;;;;;10.50;9.70;;;9.50;99.90;;;;;;4974379;28;20256;-77
2023/09/24 02:34:00;;;;;;;9.93;9.17;;;9.50;99.90;;;;;;4974316;28;20574;-77
2023/09/24 02:36:27;;;;;;;9.70;9.00;;;9.50;99.90;;;;;;4973691;28;20719;-77
2023/09/24 02:38:54;;;;;;;9.77;8.97;;;9.40;99.90;;;;;;4974340;28;20289;-77
2023/09/24 02:41:21;;;;;;;10.27;9.57;;;9.40;99.90;;;;;;4975235;28;20253;-77
2023/09/24 02:43:48;;;;;;;10.37;9.60;;;9.40;99.90;;;;;;4974831;28;20233;-77
2023/09/24 02:46:16;;;;;;;10.17;9.47;;;9.30;99.90;;;;;;4981636;28;20244;-77
2023/09/24 02:48:44;;;;;;;10.43;9.70;;;9.30;99.90;;;;;;4974825;28;20201;-77
2023/09/24 02:51:12;;;;;;;10.20;9.50;;;9.30;99.90;;;;;;4974088;28;20275;-78
2023/09/24 02:53:39;;;;;;;9.77;9.07;;;9.20;99.90;;;;;;4973664;28;20831;-77
2023/09/24 02:56:07;;;;;;;10.40;9.50;;;9.10;99.90;;;;;;4974618;28;20194;-77
2023/09/24 02:58:34;;;;;;;10.53;9.67;;;9.10;99.90;;;;;;4973061;28;20212;-77
2023/09/24 03:01:02;;;;;;;9.90;9.20;;;9.10;99.90;;;;;;4973187;28;20225;-77
2023/09/24 03:03:29;;;;;;;9.93;9.20;;;9.10;99.90;;;;;;4972951;28;20269;-77
2023/09/24 03:05:57;;;;;;;9.73;9.03;;;9.10;99.90;;;;;;4971211;28;20325;-77
2023/09/24 03:08:26;;;;;;;9.77;9.00;;;9.10;99.90;;;;;;4968926;28;20261;-78
2023/09/24 03:10:53;;;;;;;9.57;8.97;;;9.00;99.90;;;;;;4974933;28;20229;-78
2023/09/24 03:13:22;;;;;;;10.27;9.47;;;9.00;99.90;;;;;;4972919;28;20586;-77
2023/09/24 03:15:49;;;;;;;9.73;9.03;;;8.90;99.90;;;;;;4973168;28;20209;-78
2023/09/24 03:18:16;;;;;;;10.30;9.50;;;8.90;99.90;;;;;;4979571;28;20202;-77
2023/09/24 03:20:44;;;;;;;9.80;9.10;;;8.90;99.90;;;;;;4972423;28;20225;-77
2023/09/24 03:23:13;;;;;;;9.67;8.93;;;8.80;99.90;;;;;;4972899;28;20308;-78
2023/09/24 03:25:44;;;;;;;9.80;9.00;;;8.90;99.90;;;;;;4972592;28;20202;-83
2023/09/24 03:28:12;;;;;;;10.00;9.20;;;8.80;99.90;;;;;;4965261;28;20681;-77
2023/09/24 03:30:39;;;;;;;9.70;9.00;;;8.80;99.90;;;;;;4966112;28;20222;-78
2023/09/24 03:33:06;;;;;;;9.50;8.80;;;8.80;99.90;;;;;;4971057;28;20244;-78
2023/09/24 03:35:33;;;;;;;9.60;8.90;;;8.80;99.90;;;;;;4970902;28;20281;-77
2023/09/24 03:37:59;;;;;;;9.37;8.70;;;8.70;99.90;;;;;;4968767;28;20202;-78
2023/09/24 03:40:29;;;;;;;9.93;9.13;;;8.70;99.90;;;;;;4970032;28;20585;-80
2023/09/24 03:42:56;;;;;;;10.03;9.30;;;8.70;99.90;;;;;;4972381;28;20223;-79
2023/09/24 03:45:25;;;;;;;10.93;10.23;;;8.70;99.90;;;;;;4971075;28;20292;-79
2023/09/24 03:47:52;;;;;;;10.37;9.67;;;8.70;99.90;;;;;;4965457;28;20213;-78
2023/09/24 03:50:19;;;;;;;10.47;9.67;;;8.70;99.90;;;;;;4981302;28;20627;-80
2023/09/24 03:52:47;;;;;;;9.80;9.00;;;8.70;99.90;;;;;;4971429;28;20229;-78
2023/09/24 03:55:15;;;;;;;10.20;9.10;;;8.60;99.90;;;;;;4972734;28;20198;-79
2023/09/24 03:57:44;;;;;;;9.50;8.80;;;8.50;99.90;;;;;;4971440;28;20622;-76
2023/09/24 04:00:15;;;;;;;9.33;8.70;;;8.50;99.90;;;;;;4978766;28;20308;-75
2023/09/24 04:02:43;;;;;;;9.57;8.87;;;8.50;99.90;;;;;;4970699;28;20301;-75
2023/09/24 04:05:14;;;;;;;9.80;8.90;;;8.50;99.90;;;;;;4978563;28;20279;-75
2023/09/24 04:07:41;;;;;;;9.60;8.90;;;8.50;99.90;;;;;;4971528;28;20213;-76
2023/09/24 04:10:09;;;;;;;9.23;8.70;;;8.50;99.90;;;;;;4971511;28;20225;-76
2023/09/24 04:12:36;;;;;;;10.10;9.20;;;8.50;99.90;;;;;;4971184;28;20216;-76
2023/09/24 04:15:06;;;;;;;9.63;8.87;;;8.40;99.90;;;;;;4972463;28;20280;-76
2023/09/24 04:17:32;;;;;;;10.07;9.37;;;8.40;99.90;;;;;;4972577;28;20189;-76
2023/09/24 04:19:59;;;;;;;10.13;9.33;;;8.40;99.90;;;;;;4972243;28;20234;-76
2023/09/24 04:22:26;;;;;;;9.73;9.03;;;8.30;99.90;;;;;;4972605;28;20553;-75
2023/09/24 04:24:54;;;;;;;9.70;9.10;;;8.30;99.90;;;;;;4976851;28;20614;-76
2023/09/24 04:27:21;;;;;;;9.47;8.83;;;8.20;99.90;;;;;;4974975;28;20209;-76
2023/09/24 04:29:47;;;;;;;9.97;9.20;;;8.20;99.90;;;;;;4976302;28;20248;-75
2023/09/24 04:32:16;;;;;;;9.40;8.80;;;8.20;99.90;;;;;;4976650;28;20595;-76
2023/09/24 04:34:45;;;;;;;8.67;8.07;;;8.20;99.90;;;;;;4974799;28;20220;-76
2023/09/24 04:37:13;;;;;;;9.80;9.00;;;8.20;99.90;;;;;;4975989;28;20200;-76
2023/09/24 04:39:40;;;;;;;10.07;9.17;;;8.20;99.90;;;;;;4985277;28;20225;-76
2023/09/24 04:42:07;;;;;;;9.13;8.53;;;8.10;99.90;;;;;;4981386;28;20201;-75
2023/09/24 04:44:34;;;;;;;9.60;8.90;;;8.10;99.90;;;;;;4985557;28;20204;-75
2023/09/24 04:47:01;;;;;;;9.90;8.93;;;8.10;99.90;;;;;;4987800;28;20639;-76
2023/09/24 04:49:29;;;;;;;10.17;9.27;;;8.10;99.90;;;;;;4975931;28;20572;-76
2023/09/24 04:51:56;;;;;;;9.77;8.97;;;8.10;99.90;;;;;;4971471;28;20212;-76
2023/09/24 04:54:23;;;;;;;9.50;8.90;;;8.00;99.90;;;;;;4975981;28;20229;-75
2023/09/24 04:56:52;;;;;;;10.93;10.13;;;8.00;99.90;;;;;;4975181;28;20206;-76
2023/09/24 04:59:19;;;;;;;9.83;8.93;;;8.00;99.90;;;;;;4974828;28;20237;-76
2023/09/24 05:01:45;;;;;;;9.10;8.50;;;8.00;99.90;;;;;;4974837;28;20618;-76
2023/09/24 05:04:12;;;;;;;9.33;8.63;;;8.00;99.90;;;;;;4974618;28;20198;-76
2023/09/24 05:06:40;;;;;;;9.63;8.93;;;8.00;99.90;;;;;;4975621;28;20206;-76
2023/09/24 05:09:07;;;;;;;9.67;8.57;;;7.90;99.90;;;;;;4975754;28;20697;-76
2023/09/24 05:11:34;;;;;;;9.53;8.80;;;7.90;99.90;;;;;;4974161;28;20205;-75
2023/09/24 05:14:01;;;;;;;9.30;8.70;;;7.90;99.90;;;;;;4975378;28;20216;-76
2023/09/24 05:16:27;;;;;;;9.90;9.00;;;7.90;99.90;;;;;;4975570;28;20186;-76
2023/09/24 05:18:54;;;;;;;9.70;9.00;;;7.90;99.90;;;;;;4975707;28;20201;-76
2023/09/24 05:21:21;;;;;;;9.47;8.77;;;7.90;99.90;;;;;;4973927;28;20303;-76
2023/09/24 05:23:49;;;;;;;9.33;8.73;;;8.00;99.90;;;;;;4975948;28;20252;-75
2023/09/24 05:26:16;;;;;;;9.70;9.00;;;8.00;99.90;;;;;;4975243;28;20212;-76
2023/09/24 05:28:43;;;;;;;9.60;8.90;;;8.00;99.90;;;;;;4976946;28;20244;-76
2023/09/24 05:31:10;;;;;;;9.70;9.00;;;8.00;99.90;;;;;;4982259;28;20264;-75
2023/09/24 05:33:38;;;;;;;9.83;9.13;;;8.00;99.90;;;;;;4973766;28;20257;-75
2023/09/24 05:36:05;;;;;;;9.80;9.10;;;8.00;99.90;;;;;;4974452;28;20205;-76
2023/09/24 05:38:32;;;;;;;10.10;9.30;;;8.10;99.90;;;;;;4975149;28;20284;-76
2023/09/24 05:41:00;;;;;;;10.20;9.50;;;8.00;99.90;;;;;;4974975;28;20225;-75
2023/09/24 05:43:27;;;;;;;10.30;9.40;;;8.10;99.90;;;;;;4969526;28;20284;-76
2023/09/24 05:45:54;;;;;;;10.40;9.50;;;8.10;99.90;;;;;;4975236;28;20347;-76
2023/09/24 05:48:21;;;;;;;10.07;9.37;;;8.20;99.90;;;;;;4974124;28;20206;-75
2023/09/24 05:50:48;;;;;;;9.90;9.20;;;8.20;99.90;;;;;;4974696;28;20221;-76
2023/09/24 05:53:16;;;;;;;9.77;9.07;;;8.30;99.90;;;;;;4975042;28;20624;-76
2023/09/24 05:55:52;;;;;;;9.23;8.73;;;8.40;99.90;;;;;;4974701;28;20220;-75
2023/09/24 05:58:20;;;;;;;9.77;9.17;;;8.40;99.90;;;;;;4975210;28;20225;-76
2023/09/24 06:00:47;;;;;;;9.43;8.77;;;8.50;99.90;;;;;;4982775;28;20218;-76
2023/09/24 06:03:14;;;;;;;9.60;8.80;;;8.60;99.90;;;;;;4975173;28;20198;-75
2023/09/24 06:05:42;;;;;;;9.80;9.17;;;8.70;99.90;;;;;;4974421;28;20652;-75
2023/09/24 06:08:09;;;;;;;10.00;9.30;;;8.80;99.90;;;;;;4974972;28;20201;-76
2023/09/24 06:10:36;;;;;;;10.30;9.70;;;8.90;99.90;;;;;;4974621;28;20249;-76
2023/09/24 06:13:03;;;;;;;10.10;9.50;;;9.00;99.90;;;;;;4973384;28;20209;-76
2023/09/24 06:15:31;;;;;;;10.30;9.60;;;9.10;99.90;;;;;;4974371;28;20752;-76
2023/09/24 06:17:58;;;;;;;10.30;9.67;;;9.20;99.90;;;;;;4975248;28;20202;-78
2023/09/24 06:20:25;;;;;;;10.83;9.70;;;9.30;99.90;;;;;;4976357;28;20225;-77
2023/09/24 06:22:53;;;;;;;11.43;10.73;;;9.40;99.90;;;;;;4971983;28;20221;-76
2023/09/24 06:25:20;;;;;;;11.00;10.30;;;9.50;99.90;;;;;;4977208;28;20455;-76
2023/09/24 06:27:47;;;;;;;11.00;10.40;;;9.70;99.90;;;;;;4974885;28;20201;-77
2023/09/24 06:30:14;;;;;;;11.20;10.60;;;9.70;99.90;;;;;;4972615;28;20225;-76
2023/09/24 06:32:42;;;;;;;11.27;10.57;;;9.80;99.90;;;;;;4976061;28;20232;-78
2023/09/24 06:35:09;;;;;;;11.20;10.50;;;9.80;99.90;;;;;;4974906;28;20260;-78
2023/09/24 06:37:38;;;;;;;9.80;9.10;;;9.80;99.90;;;;;;4973974;28;20248;-78
2023/09/24 06:40:06;;;;;;;9.50;8.90;;;9.90;99.90;;;;;;4967028;28;20779;-76
2023/09/24 06:42:32;;;;;;;9.50;8.90;;;9.90;99.90;;;;;;4973392;28;20248;-76
2023/09/24 06:44:59;;;;;;;9.80;9.10;;;10.00;99.90;;;;;;4972186;28;20627;-76
2023/09/24 06:47:26;;;;;;;9.70;9.10;;;10.00;99.90;;;;;;4972172;28;20637;-76
2023/09/24 06:49:54;;;;;;;8.77;8.27;;;10.00;99.90;;;;;;4973653;28;20672;-76
2023/09/24 06:52:26;;;;;;;7.43;6.90;;;10.20;99.90;;;;;;4975344;28;20202;-84
2023/09/24 06:54:53;;;;;;;5.20;4.80;;;10.20;99.90;;;;;;4972735;28;20225;-76
2023/09/24 06:57:20;;;;;;;7.10;6.60;;;10.30;99.90;;;;;;4972856;28;20198;-76
2023/09/24 06:59:47;;;;;;;6.97;6.47;;;10.30;99.90;;;;;;4973671;28;20276;-76
2023/09/24 07:02:14;;;;;;;6.00;5.60;;;10.50;99.90;;;;;;4975933;28;20222;-76
2023/09/24 07:04:41;;;;;;;7.90;7.40;;;10.70;99.90;;;;;;4979742;28;20217;-76
2023/09/24 07:07:09;;;;;;;8.00;7.33;;;11.10;99.90;;;;;;4976773;28;20221;-76
2023/09/24 07:09:36;;;;;;;5.20;3.67;;;11.50;99.90;;;;;;4972467;28;20582;-75
2023/09/24 07:12:04;;;;;;;6.63;6.13;;;12.00;99.90;;;;;;4974390;28;20741;-76
2023/09/24 07:14:31;;;;;;;5.90;5.50;;;12.40;99.90;;;;;;4973742;28;20217;-80
2023/09/24 07:16:57;;;;;;;3.90;3.60;;;12.80;99.90;;;;;;4977068;28;20205;-75
2023/09/24 07:19:24;;;;;;;7.63;7.13;;;13.20;99.90;;;;;;4974008;28;20225;-76
2023/09/24 07:21:52;;;;;;;4.80;2.80;;;13.60;99.90;;;;;;4971903;28;20209;-77
2023/09/24 07:24:20;;;;;;;3.73;3.30;;;14.00;99.90;;;;;;4969322;28;20198;-76
2023/09/24 07:26:47;;;;;;;5.37;4.97;;;14.50;99.90;;;;;;4973481;28;20203;-76
2023/09/24 07:29:13;;;;;;;3.20;2.90;;;15.00;99.90;;;;;;4972644;28;20260;-77
2023/09/24 07:31:41;;;;;;;4.73;3.30;;;15.40;99.90;;;;;;4973848;28;20232;-77
2023/09/24 07:34:09;;;;;;;3.50;3.00;;;15.70;99.90;;;;;;4977508;28;20256;-77
2023/09/24 07:36:36;;;;;;;5.53;5.13;;;15.90;99.90;;;;;;4978780;28;20204;-77
2023/09/24 07:39:10;;;;;;;9.80;9.20;;;16.00;99.90;;;;;;4977544;28;20227;-79
2023/09/24 07:41:38;;;;;;;4.30;3.90;;;16.30;99.90;;;;;;4973047;28;20244;-81
2023/09/24 07:44:06;;;;;;;4.17;3.87;;;16.60;99.90;;;;;;4978808;28;20202;-82
2023/09/24 07:46:34;;;;;;;8.40;7.70;;;16.70;99.90;;;;;;4969290;28;20221;-82
2023/09/24 07:49:05;;;;;;;10.57;9.77;;;17.10;99.90;;;;;;4972682;28;20217;-80
2023/09/24 07:51:32;;;;;;;3.10;2.80;;;17.20;99.90;;;;;;4977017;28;20208;-79
2023/09/24 07:54:00;;;;;;;8.37;7.47;;;17.40;99.90;;;;;;4975717;28;20578;-79
2023/09/24 07:56:26;;;;;;;8.90;8.30;;;17.50;99.90;;;;;;4974334;28;20214;-78
2023/09/24 07:58:56;;;;;;;8.70;8.07;;;17.60;99.90;;;;;;4982556;28;20200;-79
2023/09/24 08:01:23;;;;;;;7.90;7.40;;;17.60;99.90;;;;;;4975314;28;20306;-78
2023/09/24 08:03:52;;;;;;;8.50;7.80;;;17.90;99.90;;;;;;4979367;28;20208;-78
2023/09/24 08:06:20;;;;;;;7.40;7.00;;;18.00;99.90;;;;;;4981439;28;20227;-78
2023/09/24 08:08:47;;;;;;;5.43;5.03;;;18.00;99.90;;;;;;4975145;28;20224;-80
2023/09/24 08:11:13;;;;;;;3.47;2.50;;;18.20;99.90;;;;;;4980910;28;20639;-80
2023/09/24 08:13:40;;;;;;;2.83;2.60;;;18.50;99.90;;;;;;4976247;28;20564;-80
2023/09/24 08:16:08;;;;;;;4.53;4.20;;;18.50;99.90;;;;;;4972391;28;20283;-79
2023/09/24 08:18:35;;;;;;;7.50;7.00;;;18.60;99.90;;;;;;4975203;28;20228;-80
2023/09/24 08:21:05;;;;;;;7.20;6.70;;;18.50;99.90;;;;;;4972590;28;20235;-82
2023/09/24 08:23:33;;;;;;;7.70;7.10;;;18.60;99.90;;;;;;4972745;28;20687;-81
2023/09/24 08:26:00;;;;;;;2.95;2.70;;;18.70;99.90;;;;;;4973483;28;20485;-80
2023/09/24 08:28:27;;;;;;;5.53;5.07;;;18.70;99.90;;;;;;4973156;28;20857;-80
2023/09/24 08:30:54;;;;;;;6.93;6.47;;;18.70;99.90;;;;;;4976554;28;20461;-80
2023/09/24 08:33:22;;;;;;;3.20;2.47;;;18.80;99.90;;;;;;4972544;28;20206;-80
2023/09/24 08:35:49;;;;;;;7.47;6.87;;;19.00;99.90;;;;;;4974837;28;20613;-80
2023/09/24 08:38:16;;;;;;;4.97;4.33;;;19.20;99.90;;;;;;4972192;28;20652;-80
2023/09/24 08:40:43;;;;;;;8.43;7.82;;;19.40;99.90;;;;;;4968648;28;20505;-80
2023/09/24 08:43:14;;;;;;;7.50;6.90;;;19.40;99.90;;;;;;4972796;28;20206;-80
2023/09/24 08:45:42;;;;;;;3.33;2.47;;;19.70;99.90;;;;;;4973618;28;20204;-80
2023/09/24 08:48:10;;;;;;;4.33;3.17;;;20.10;99.90;;;;;;4974591;28;20202;-81
2023/09/24 08:50:40;;;;;;;3.40;2.70;;;20.00;99.90;;;;;;4973419;28;20225;-81
2023/09/24 08:53:10;;;;;;;2.60;2.40;;;19.90;99.90;;;;;;4968808;28;20637;-82
2023/09/24 08:55:38;;;;;;;6.70;6.30;;;19.70;99.90;;;;;;4978554;28;20214;-81
2023/09/24 08:58:05;;;;;;;7.60;7.10;;;19.80;99.90;;;;;;4974855;28;20615;-81
2023/09/24 09:00:32;;;;;;;7.97;7.37;;;19.80;99.90;;;;;;4963792;28;20270;-81
2023/09/24 09:03:03;;;;;;;8.10;7.40;;;19.60;99.90;;;;;;4969582;28;20588;-81
2023/09/24 09:05:34;;;;;;;7.77;7.20;;;19.80;99.90;;;;;;4973610;28;20190;-81
2023/09/24 09:08:03;;;;;;;3.00;2.70;;;20.00;99.90;;;;;;4973644;28;20581;-81
2023/09/24 09:10:32;;;;;;;5.82;2.92;;;20.20;99.90;;;;;;4982069;28;20452;-81
2023/09/24 09:13:04;;;;;;;7.50;6.93;;;20.00;99.90;;;;;;4975538;28;20202;-82
2023/09/24 09:15:32;;;;;;;8.07;7.50;;;20.40;99.90;;;;;;4980331;28;20217;-81
2023/09/24 09:17:59;;;;;;;3.43;3.17;;;20.60;99.90;;;;;;4977648;28;20210;-82
2023/09/24 09:20:44;;;;;;;3.07;2.77;;;20.50;99.90;;;;;;4977469;28;20322;-81
2023/09/24 09:23:15;;;;;;;4.50;3.07;;;20.50;99.90;;;;;;4983905;28;20212;-81
2023/09/24 09:25:48;;;;;;;7.83;7.33;;;20.40;99.90;;;;;;4976112;28;20190;-82
2023/09/24 09:28:23;;;;;;;5.83;5.43;;;20.30;99.90;;;;;;4975979;28;20229;-81
2023/09/24 09:31:04;;;;;;;8.40;7.70;;;20.60;99.90;;;;;;4976401;28;20305;-82
2023/09/24 09:33:32;;;;;;;7.97;7.40;;;20.60;99.90;;;;;;4965915;28;20190;-80
2023/09/24 09:36:00;;;;;;;3.23;2.47;;;20.60;99.90;;;;;;4976607;28;20221;-81
2023/09/24 09:38:28;;;;;;;3.33;2.60;;;20.40;99.90;;;;;;4965377;28;20206;-81
2023/09/24 09:40:56;;;;;;;6.90;6.30;;;20.30;99.90;;;;;;4970278;28;20221;-81
2023/09/24 09:43:25;;;;;;;2.67;2.37;;;20.50;99.90;;;;;;4960624;28;20664;-81
2023/09/24 09:45:55;;;;;;;5.17;2.80;;;20.50;99.90;;;;;;4974053;28;20617;-82
2023/09/24 09:48:32;;;;;;;8.00;7.40;;;20.60;99.90;;;;;;4973281;28;20198;-81
2023/09/24 09:51:02;;;;;;;6.10;5.53;;;20.50;99.90;;;;;;4984210;28;20234;-81
2023/09/24 09:53:34;;;;;;;7.40;6.80;;;20.10;99.90;;;;;;4968064;28;20198;-81
2023/09/24 09:56:02;;;;;;;7.13;6.53;;;20.20;99.90;;;;;;4972415;28;20523;-81
2023/09/24 09:58:32;;;;;;;7.00;6.53;;;20.30;99.90;;;;;;4975358;28;20289;-81
2023/09/24 10:01:01;;;;;;;7.47;6.87;;;20.10;99.90;;;;;;4971273;28;20225;-81
2023/09/24 10:03:30;;;;;;;9.47;7.20;;;20.00;99.90;;;;;;4974128;28;20200;-81
2023/09/24 10:05:58;;;;;;;7.03;6.43;;;19.70;99.90;;;;;;4969820;28;21097;-81
2023/09/24 10:08:37;;;;;;;6.87;6.37;;;19.70;99.90;;;;;;4985877;28;20198;-81
2023/09/24 10:11:04;;;;;;;6.43;6.03;;;19.60;99.90;;;;;;4971637;28;20649;-81
2023/09/24 10:13:48;;;;;;;6.73;6.23;;;19.80;99.90;;;;;;4982009;28;20236;-81
2023/09/24 10:16:37;;;;;;;7.90;7.20;;;19.80;99.90;;;;;;4988163;28;20226;-80
2023/09/24 10:19:09;;;;;;;7.50;6.90;;;19.50;99.90;;;;;;4975072;28;20699;-80
2023/09/24 10:21:36;;;;;;;7.07;6.47;;;19.30;99.90;;;;;;4973152;28;20275;-78
2023/09/24 10:24:49;;;;;;;6.77;6.37;;;19.30;99.90;;;;;;4978039;28;20209;-79
2023/09/24 10:27:21;;;;;;;6.60;6.10;;;19.40;99.90;;;;;;4976630;28;20229;-78
2023/09/24 10:30:08;;;;;;;3.50;2.40;;;19.50;99.90;;;;;;4971580;28;20450;-77
2023/09/24 10:32:51;;;;;;;3.47;2.13;;;19.60;99.90;;;;;;4986934;28;20205;-79
2023/09/24 10:35:19;;;;;;;2.30;2.10;;;19.50;99.90;;;;;;4972362;28;20679;-76
2023/09/24 10:38:04;;;;;;;3.53;2.50;;;19.10;99.90;;;;;;4980753;28;20624;-77
2023/09/24 10:40:33;;;;;;;3.73;3.23;;;18.90;99.90;;;;;;4983636;28;20221;-76
2023/09/24 10:43:18;;;;;;;5.87;5.37;;;18.90;99.90;;;;;;4976644;28;20205;-76
2023/09/24 10:45:46;;;;;;;6.90;6.40;;;18.90;99.90;;;;;;4972620;28;20733;-76
2023/09/24 10:48:14;;;;;;;3.97;2.40;;;18.80;99.90;;;;;;4981409;28;20967;-76
2023/09/24 10:50:43;;;;;;;3.57;2.33;;;18.80;99.90;;;;;;4973834;28;20552;-76
2023/09/24 10:53:10;;;;;;;3.10;2.30;;;18.90;99.90;;;;;;4975442;28;20201;-76
2023/09/24 10:55:39;;;;;;;3.50;3.20;;;18.90;99.90;;;;;;4977771;28;20217;-80
2023/09/24 10:58:12;;;;;;;6.38;5.88;;;18.80;99.90;;;;;;4972931;28;20450;-76
2023/09/24 11:00:42;;;;;;;7.50;6.80;;;18.80;99.90;;;;;;4981459;28;20703;-76
2023/09/24 11:03:11;;;;;;;6.67;6.10;;;18.80;99.90;;;;;;4980955;28;20204;-76
2023/09/24 11:05:44;;;;;;;3.23;2.93;;;18.50;99.90;;;;;;4972393;28;20218;-75
2023/09/24 11:08:11;;;;;;;6.87;6.37;;;18.60;99.90;;;;;;4975308;28;20968;-76
2023/09/24 11:10:38;;;;;;;6.10;5.60;;;18.60;99.90;;;;;;4968112;28;20702;-76
2023/09/24 11:13:06;;;;;;;7.57;6.97;;;18.70;99.90;;;;;;4976371;28;20200;-76
2023/09/24 11:15:34;;;;;;;7.27;6.67;;;18.80;99.90;;;;;;4973716;28;20266;-76
2023/09/24 11:18:03;;;;;;;7.60;7.00;;;18.70;99.90;;;;;;4972017;28;20208;-76
2023/09/24 11:20:31;;;;;;;8.00;7.30;;;18.90;99.90;;;;;;4972425;28;20232;-77
2023/09/24 11:22:59;;;;;;;7.20;6.60;;;18.80;99.90;;;;;;4975215;28;20214;-76
2023/09/24 11:25:26;;;;;;;7.10;6.50;;;18.60;99.90;;;;;;4973553;28;20212;-76
2023/09/24 11:27:55;;;;;;;7.97;7.27;;;18.60;99.90;;;;;;4974403;28;20257;-77
2023/09/24 11:30:26;;;;;;;4.00;2.30;;;18.60;99.90;;;;;;4973123;28;20724;-81
2023/09/24 11:32:54;;;;;;;4.37;2.30;;;18.70;99.90;;;;;;4969891;28;20211;-79
2023/09/24 11:35:25;;;;;;;7.00;6.50;;;18.60;99.90;;;;;;4977440;28;20663;-78
2023/09/24 11:37:53;;;;;;;7.37;6.80;;;18.40;99.90;;;;;;4975931;28;20610;-79
2023/09/24 11:40:25;;;;;;;7.00;6.50;;;18.50;99.90;;;;;;4973906;28;20281;-77
2023/09/24 11:42:54;;;;;;;7.13;6.60;;;18.60;99.90;;;;;;4970917;28;20200;-76
2023/09/24 11:45:46;;;;;;;7.40;6.70;;;18.60;99.90;;;;;;4971569;28;20209;-76
2023/09/24 11:48:14;;;;;;;6.83;6.33;;;18.70;99.90;;;;;;4984259;28;20483;-76
2023/09/24 11:50:43;;;;;;;7.87;6.30;;;18.70;99.90;;;;;;4980400;28;20217;-76
2023/09/24 11:53:10;;;;;;;6.73;6.23;;;18.70;99.90;;;;;;4982286;28;20204;-77
2023/09/24 11:55:37;;;;;;;7.23;6.63;;;18.60;99.90;;;;;;4975726;28;20291;-76
2023/09/24 11:58:05;;;;;;;7.10;6.50;;;18.70;99.90;;;;;;4981494;28;20206;-76
2023/09/24 12:00:33;;;;;;;6.70;6.20;;;18.80;99.90;;;;;;4974789;28;20213;-76
2023/09/24 12:03:01;;;;;;;6.73;6.23;;;18.70;99.90;;;;;;4974956;28;20229;-76
2023/09/24 12:05:28;;;;;;;6.87;6.47;;;18.70;99.90;;;;;;4972642;28;20247;-76
2023/09/24 12:07:57;;;;;;;7.00;6.40;;;18.80;99.90;;;;;;4975027;28;20208;-76
2023/09/24 12:10:23;;;;;;;6.70;6.20;;;18.90;99.90;;;;;;4972310;28;20225;-76
2023/09/24 12:12:51;;;;;;;6.90;6.40;;;18.90;99.90;;;;;;4979264;28;20252;-76
2023/09/24 12:15:18;;;;;;;6.70;6.00;;;18.90;99.90;;;;;;4969039;28;20199;-75
2023/09/24 12:17:46;;;;;;;6.77;6.27;;;18.80;99.90;;;;;;4972212;28;20220;-76
2023/09/24 12:20:13;;;;;;;6.50;6.10;;;18.70;99.90;;;;;;4963051;28;20716;-75
2023/09/24 12:22:42;;;;;;;7.00;6.50;;;18.60;99.90;;;;;;4971558;28;20203;-77
2023/09/24 12:25:11;;;;;;;8.10;6.53;;;18.60;99.90;;;;;;4967211;28;20215;-77
2023/09/24 12:27:39;;;;;;;6.90;6.40;;;18.60;99.90;;;;;;4969419;28;20200;-76
2023/09/24 12:30:11;;;;;;;7.33;6.73;;;18.70;99.90;;;;;;4976144;28;20229;-76
2023/09/24 12:32:39;;;;;;;7.37;6.70;;;18.70;99.90;;;;;;4970740;28;20383;-77
2023/09/24 12:35:07;;;;;;;6.87;6.47;;;18.90;99.90;;;;;;4970339;28;20206;-75
2023/09/24 12:37:35;;;;;;;7.20;6.70;;;18.90;99.90;;;;;;4971780;28;20567;-76
2023/09/24 12:40:05;;;;;;;7.00;6.50;;;19.00;99.90;;;;;;4972394;28;20262;-76
2023/09/24 12:42:33;;;;;;;6.90;6.40;;;19.00;99.90;;;;;;4975833;28;20196;-76
2023/09/24 12:45:01;;;;;;;7.10;6.50;;;19.10;99.90;;;;;;4974477;28;20739;-76
2023/09/24 12:47:31;;;;;;;8.37;7.57;;;19.00;99.90;;;;;;4976089;28;20631;-76
2023/09/24 12:49:58;;;;;;;7.00;6.40;;;18.90;99.90;;;;;;4971673;28;20227;-76
2023/09/24 12:52:25;;;;;;;6.67;6.20;;;18.90;99.90;;;;;;4977746;28;20216;-77
2023/09/24 12:54:52;;;;;;;7.13;6.67;;;18.80;99.90;;;;;;4978338;28;20204;-77